Time;durP1;ratioP1;P1;durP2;ratioP2;P2;SDS_P1;SDS_P2;PMS_P1;PMS_P2;Temp;Humidity;BMP_temperature;BMP_pressure;BME280_temperature;BME280_humidity;BME280_pressure;Samples;Min_cycle;Max_cycle;Signal;HPM_P1;HPM_P2
2022/10/07 00:00:22;;;;;;;14.60;8.10;;;;;;;6.94;71.47;101658.85;130409;1268;108687;-74
2022/10/07 00:03:48;;;;;;;15.00;8.20;;;;;;;6.89;71.29;101662.83;130493;1267;110370;-74
2022/10/07 00:06:53;;;;;;;18.20;8.30;;;;;;;6.83;71.48;101656.28;130276;1268;108600;-75
2022/10/07 00:09:59;;;;;;;17.40;8.50;;;;;;;6.79;71.43;101659.39;130393;1267;109018;-74
2022/10/07 00:13:04;;;;;;;13.10;8.00;;;;;;;6.74;71.54;101653.84;130462;1267;111262;-76
2022/10/07 00:16:12;;;;;;;14.90;7.80;;;;;;;6.70;71.58;101659.20;130495;1267;108968;-76
2022/10/07 00:19:17;;;;;;;12.80;7.20;;;;;;;6.62;71.47;101655.27;130513;1267;108860;-75
2022/10/07 00:22:22;;;;;;;14.80;7.70;;;;;;;6.59;71.26;101651.57;130409;1267;108836;-75
2022/10/07 00:25:28;;;;;;;15.10;7.70;;;;;;;6.57;71.50;101650.64;130356;1267;108758;-75
2022/10/07 00:28:34;;;;;;;17.60;8.60;;;;;;;6.57;71.53;101649.39;130404;1267;108757;-75
2022/10/07 00:31:40;;;;;;;13.80;8.00;;;;;;;6.59;71.42;101646.48;130361;1268;109155;-75
2022/10/07 00:34:45;;;;;;;13.90;8.30;;;;;;;6.56;71.10;101645.94;130325;1267;109698;-74
2022/10/07 00:37:52;;;;;;;13.90;8.00;;;;;;;6.53;71.41;101645.91;130550;1267;108804;-74
2022/10/07 00:40:57;;;;;;;14.70;8.00;;;;;;;6.51;71.23;101643.94;130558;1267;107824;-75
2022/10/07 00:44:31;;;;;;;15.00;8.40;;;;;;;6.48;71.31;101646.59;130490;1268;108743;-74
2022/10/07 00:47:36;;;;;;;13.20;8.00;;;;;;;6.44;70.99;101644.36;130487;1267;108751;-74
2022/10/07 00:50:42;;;;;;;14.40;8.40;;;;;;;6.39;71.22;101642.88;130434;1267;108735;-75
2022/10/07 00:53:50;;;;;;;13.70;7.90;;;;;;;6.35;71.14;101639.79;130402;1268;109034;-74
2022/10/07 00:56:58;;;;;;;10.60;7.50;;;;;;;6.32;71.22;101640.52;130524;1267;108639;-74
2022/10/07 01:00:04;;;;;;;13.80;8.10;;;;;;;6.27;71.11;101636.89;130450;1267;108845;-75
2022/10/07 01:03:09;;;;;;;12.50;8.50;;;;;;;6.22;71.13;101638.40;130462;1267;108692;-75
2022/10/07 01:06:15;;;;;;;13.70;7.80;;;;;;;6.17;71.24;101636.05;130467;1267;108738;-75
2022/10/07 01:09:21;;;;;;;14.00;7.60;;;;;;;6.12;71.26;101638.31;130390;1268;108720;-74
2022/10/07 01:12:35;;;;;;;14.00;7.90;;;;;;;6.05;71.13;101637.13;130509;1267;108737;-74
2022/10/07 01:15:46;;;;;;;14.10;7.10;;;;;;;6.00;71.45;101640.09;130444;1267;109034;-75
2022/10/07 01:19:03;;;;;;;15.90;7.30;;;;;;;5.96;71.41;101636.93;130378;1267;108560;-74
2022/10/07 01:22:21;;;;;;;15.30;7.30;;;;;;;5.95;71.27;101643.85;130520;1267;108632;-75
2022/10/07 01:25:41;;;;;;;12.60;6.50;;;;;;;5.97;71.30;101642.86;130259;1268;108738;-75
2022/10/07 01:28:52;;;;;;;11.50;6.50;;;;;;;5.99;71.23;101640.13;130299;1268;108637;-75
2022/10/07 01:32:03;;;;;;;12.20;6.70;;;;;;;6.00;71.34;101640.92;130434;1268;108739;-74
2022/10/07 01:35:14;;;;;;;13.60;6.50;;;;;;;6.02;71.20;101642.41;130531;1268;108365;-75
2022/10/07 01:38:25;;;;;;;11.40;6.10;;;;;;;6.01;71.10;101644.09;130301;1267;108793;-76
2022/10/07 01:41:32;;;;;;;12.00;6.80;;;;;;;5.97;71.01;101639.20;130313;1268;107644;-74
2022/10/07 01:44:40;;;;;;;11.10;6.70;;;;;;;5.92;70.98;101636.41;130409;1268;108590;-74
2022/10/07 01:47:45;;;;;;;10.40;6.20;;;;;;;5.89;71.00;101637.52;130466;1267;108544;-74
2022/10/07 01:50:53;;;;;;;11.50;6.40;;;;;;;5.86;71.21;101634.99;130499;1266;107404;-74
2022/10/07 01:54:07;;;;;;;12.50;6.70;;;;;;;5.82;71.06;101636.65;130501;1267;108711;-73
2022/10/07 01:57:26;;;;;;;10.20;6.10;;;;;;;5.77;71.01;101640.44;130420;1267;108861;-74
2022/10/07 02:00:33;;;;;;;13.50;7.00;;;;;;;5.72;71.16;101638.63;130469;1268;108878;-74
2022/10/07 02:03:54;;;;;;;12.00;6.10;;;;;;;5.69;71.11;101637.03;130587;1268;108840;-74
2022/10/07 02:07:12;;;;;;;10.20;6.20;;;;;;;5.66;71.09;101634.40;130516;1267;109112;-72
2022/10/07 02:10:26;;;;;;;9.30;6.00;;;;;;;5.62;71.14;101631.05;130452;1267;109088;-73
2022/10/07 02:13:36;;;;;;;11.50;6.40;;;;;;;5.59;70.97;101629.68;130463;1267;108947;-76
2022/10/07 02:16:45;;;;;;;11.00;6.20;;;;;;;5.56;71.02;101625.63;130383;1268;108890;-76
2022/10/07 02:19:56;;;;;;;9.10;5.70;;;;;;;5.49;71.04;101627.71;130512;1267;108664;-76
2022/10/07 02:23:05;;;;;;;10.80;6.20;;;;;;;5.46;70.98;101624.54;130705;1267;108894;-75
2022/10/07 02:26:14;;;;;;;9.00;5.20;;;;;;;5.46;71.22;101626.30;130297;1268;108781;-76
2022/10/07 02:29:23;;;;;;;8.40;5.50;;;;;;;5.49;71.22;101626.33;130430;1268;108949;-75
2022/10/07 02:32:34;;;;;;;10.50;6.00;;;;;;;5.52;71.12;101625.27;130396;1267;108883;-76
2022/10/07 02:35:49;;;;;;;10.50;5.60;;;;;;;5.54;70.94;101621.16;130428;1267;108783;-75
2022/10/07 02:38:58;;;;;;;8.20;5.70;;;;;;;5.53;71.10;101624.17;130550;1267;108630;-77
2022/10/07 02:42:12;;;;;;;9.70;5.30;;;;;;;5.53;71.05;101626.83;130583;1267;108714;-74
2022/10/07 02:45:23;;;;;;;8.90;5.60;;;;;;;5.49;71.01;101626.50;130498;1267;108808;-74
2022/10/07 02:48:33;;;;;;;12.10;5.90;;;;;;;5.40;70.75;101623.27;130445;1267;108660;-75
2022/10/07 02:51:45;;;;;;;8.70;5.40;;;;;;;5.35;70.98;101621.15;130427;1268;108820;-76
2022/10/07 02:54:58;;;;;;;10.80;5.70;;;;;;;5.30;71.00;101620.54;130486;1267;108952;-76
2022/10/07 02:58:08;;;;;;;12.40;6.20;;;;;;;5.25;71.19;101623.29;130526;1267;108069;-76
2022/10/07 03:01:19;;;;;;;10.20;6.00;;;;;;;5.24;70.94;101618.92;130411;1268;109091;-75
2022/10/07 03:04:25;;;;;;;10.10;5.50;;;;;;;5.21;71.22;101618.73;130367;1268;109021;-75
2022/10/07 03:07:31;;;;;;;9.10;5.90;;;;;;;5.20;71.21;101618.42;130579;1267;109017;-75
2022/10/07 03:10:38;;;;;;;11.40;6.00;;;;;;;5.17;71.17;101615.92;130571;1267;109019;-76
2022/10/07 03:13:45;;;;;;;8.50;5.70;;;;;;;5.15;71.17;101618.69;130573;1267;108858;-76
2022/10/07 03:16:51;;;;;;;9.20;5.50;;;;;;;5.11;71.25;101618.88;130376;1267;108711;-76
2022/10/07 03:19:56;;;;;;;12.90;5.70;;;;;;;5.07;71.27;101613.29;130449;1267;108671;-75
2022/10/07 03:23:03;;;;;;;7.10;4.80;;;;;;;5.08;71.43;101614.63;130471;1267;108734;-74
2022/10/07 03:26:09;;;;;;;10.70;5.70;;;;;;;5.10;71.14;101614.73;130520;1267;109137;-74
2022/10/07 03:29:15;;;;;;;11.50;6.00;;;;;;;5.13;71.16;101614.20;130494;1267;108910;-75
2022/10/07 03:32:22;;;;;;;10.70;5.90;;;;;;;5.16;70.97;101613.00;130410;1268;109041;-76
2022/10/07 03:35:28;;;;;;;9.50;6.20;;;;;;;5.16;70.97;101609.13;130498;1267;108706;-76
2022/10/07 03:38:35;;;;;;;9.60;5.50;;;;;;;5.15;71.24;101609.55;130454;1267;108689;-75
2022/10/07 03:41:41;;;;;;;9.40;5.90;;;;;;;5.14;71.22;101609.08;130531;1266;108709;-78
2022/10/07 03:44:48;;;;;;;13.40;6.30;;;;;;;5.10;71.14;101610.85;130430;1266;108811;-75
2022/10/07 03:47:55;;;;;;;11.60;6.20;;;;;;;5.04;71.14;101602.70;130582;1268;107744;-75
2022/10/07 03:51:00;;;;;;;10.60;6.10;;;;;;;5.02;71.18;101604.58;130499;1267;108656;-75
2022/10/07 03:54:07;;;;;;;11.00;6.30;;;;;;;4.98;71.23;101601.42;130548;1268;108796;-74
2022/10/07 04:00:39;;;;;;;11.70;6.50;;;;;;;4.94;71.32;101596.92;130539;1267;108992;-76
2022/10/07 04:03:45;;;;;;;12.10;6.50;;;;;;;4.90;71.36;101597.80;130722;1267;109080;-73
2022/10/07 04:06:50;;;;;;;9.90;6.30;;;;;;;4.88;71.46;101596.02;130609;1268;108747;-74
2022/10/07 04:09:56;;;;;;;13.20;6.90;;;;;;;4.86;71.34;101597.53;130376;1268;108643;-74
2022/10/07 04:13:01;;;;;;;10.80;6.30;;;;;;;4.83;71.23;101598.39;130557;1268;108624;-75
2022/10/07 04:16:11;;;;;;;12.10;6.50;;;;;;;4.78;71.25;101594.42;130453;1267;109744;-76
2022/10/07 04:19:17;;;;;;;10.80;6.50;;;;;;;4.75;71.46;101595.81;130398;1268;108689;-76
2022/10/07 04:22:23;;;;;;;11.10;5.50;;;;;;;4.76;71.49;101592.80;130196;1268;108838;-76
2022/10/07 04:25:34;;;;;;;10.50;6.80;;;;;;;4.80;71.36;101590.64;130347;1268;108900;-76
2022/10/07 04:28:43;;;;;;;13.70;6.60;;;;;;;4.83;71.43;101586.26;130447;1267;108839;-74
2022/10/07 04:31:51;;;;;;;11.60;7.00;;;;;;;4.87;71.33;101587.45;130431;1268;108755;-75
2022/10/07 04:34:57;;;;;;;16.10;7.20;;;;;;;4.88;71.42;101585.78;130390;1267;108950;-75
2022/10/07 04:38:02;;;;;;;13.10;6.80;;;;;;;4.89;71.52;101585.35;130427;1267;108706;-75
2022/10/07 04:41:08;;;;;;;13.50;7.40;;;;;;;4.87;71.47;101582.80;130411;1267;108658;-76
2022/10/07 04:44:15;;;;;;;13.30;7.20;;;;;;;4.85;71.50;101577.30;130486;1268;108851;-76
2022/10/07 04:47:34;;;;;;;12.40;7.90;;;;;;;4.84;71.60;101579.14;130274;1268;108825;-75
2022/10/07 04:50:40;;;;;;;13.00;8.10;;;;;;;4.77;71.40;101578.10;130371;1267;108675;-75
2022/10/07 04:53:52;;;;;;;13.10;7.20;;;;;;;4.73;71.56;101580.45;130506;1267;108593;-76
2022/10/07 04:56:58;;;;;;;12.00;7.70;;;;;;;4.71;71.61;101576.12;130548;1268;107546;-76
2022/10/07 05:00:07;;;;;;;12.60;7.70;;;;;;;4.71;71.78;101576.30;130365;1268;108810;-75
2022/10/07 05:03:14;;;;;;;11.90;7.80;;;;;;;4.73;71.79;101580.80;130446;1267;108738;-77
2022/10/07 05:06:19;;;;;;;11.30;7.00;;;;;;;4.74;71.91;101578.80;130537;1267;109828;-75
2022/10/07 05:09:25;;;;;;;13.40;8.10;;;;;;;4.76;71.98;101575.69;130367;1267;108798;-75
2022/10/07 05:12:30;;;;;;;11.00;6.70;;;;;;;4.81;72.05;101565.90;130465;1267;108705;-77
2022/10/07 05:15:36;;;;;;;12.90;7.50;;;;;;;4.89;72.16;101566.34;130429;1267;108875;-76
2022/10/07 05:18:42;;;;;;;11.50;7.70;;;;;;;4.97;72.12;101568.90;130468;1268;108813;-71
2022/10/07 05:21:50;;;;;;;11.30;7.50;;;;;;;5.03;72.01;101566.62;130330;1267;109563;-72
2022/10/07 05:24:55;;;;;;;18.10;9.20;;;;;;;5.09;72.14;101567.72;130289;1267;109864;-71
2022/10/07 05:28:01;;;;;;;14.30;8.10;;;;;;;5.14;72.20;101569.37;130497;1266;108766;-72
2022/10/07 05:31:08;;;;;;;12.20;7.60;;;;;;;5.18;72.23;101565.80;130385;1268;108856;-71
2022/10/07 05:34:14;;;;;;;16.60;8.30;;;;;;;5.22;72.42;101567.48;130274;1268;108647;-70
2022/10/07 05:37:20;;;;;;;14.90;8.70;;;;;;;5.25;72.41;101566.63;130308;1268;109670;-72
2022/10/07 05:40:26;;;;;;;12.90;8.10;;;;;;;5.29;72.59;101565.70;130439;1268;109355;-71
2022/10/07 05:43:34;;;;;;;12.70;8.60;;;;;;;5.33;72.70;101566.52;130399;1268;109658;-71
2022/10/07 05:46:40;;;;;;;14.60;9.40;;;;;;;5.37;72.90;101566.52;130444;1266;108644;-71
2022/10/07 05:49:46;;;;;;;14.80;10.00;;;;;;;5.42;73.17;101567.98;130279;1267;107325;-71
2022/10/07 05:52:52;;;;;;;13.40;10.00;;;;;;;5.49;73.63;101570.92;130300;1268;108706;-70
2022/10/07 05:55:58;;;;;;;14.00;9.00;;;;;;;5.58;74.03;101568.48;130257;1267;109508;-72
2022/10/07 05:59:05;;;;;;;13.60;9.40;;;;;;;5.70;74.27;101569.56;130311;1267;108839;-70
2022/10/07 06:02:15;;;;;;;16.50;10.60;;;;;;;5.85;74.48;101568.11;130383;1267;108719;-70
2022/10/07 06:05:22;;;;;;;16.10;10.90;;;;;;;6.00;74.46;101571.34;130325;1267;108862;-70
2022/10/07 06:08:29;;;;;;;17.40;11.50;;;;;;;6.11;74.73;101569.08;130267;1267;108427;-69
2022/10/07 06:15:05;;;;;;;16.90;11.30;;;;;;;6.37;75.26;101569.30;129876;1271;109641;-71
2022/10/07 06:18:11;;;;;;;15.30;11.30;;;;;;;6.50;75.55;101567.48;130403;1267;107782;-71
2022/10/07 06:21:17;;;;;;;15.50;10.50;;;;;;;6.64;76.09;101567.84;130321;1268;108719;-71
2022/10/07 06:24:24;;;;;;;17.30;10.70;;;;;;;6.79;76.29;101567.44;130382;1267;108989;-71
2022/10/07 06:27:30;;;;;;;18.10;11.50;;;;;;;6.96;77.01;101566.34;130287;1268;108941;-71
2022/10/07 06:30:37;;;;;;;17.00;11.70;;;;;;;7.16;77.26;101566.86;130357;1267;108651;-70
2022/10/07 06:33:43;;;;;;;15.90;11.20;;;;;;;7.33;76.88;101567.67;130238;1268;108817;-70
2022/10/07 06:36:48;;;;;;;15.00;11.00;;;;;;;7.50;77.44;101567.14;130228;1268;108803;-71
2022/10/07 06:39:54;;;;;;;16.00;11.00;;;;;;;7.64;77.39;101570.41;130508;1267;108950;-71
2022/10/07 06:43:01;;;;;;;14.90;9.70;;;;;;;7.77;77.72;101569.61;130401;1267;108800;-71
2022/10/07 06:46:13;;;;;;;14.60;10.40;;;;;;;7.91;77.86;101568.15;130129;1268;108638;-72
2022/10/07 06:49:19;;;;;;;19.20;11.50;;;;;;;8.07;77.99;101566.67;130416;1268;108637;-70
2022/10/07 06:52:25;;;;;;;13.90;10.70;;;;;;;8.27;78.39;101568.48;130396;1267;108773;-70
2022/10/07 06:55:31;;;;;;;15.10;11.10;;;;;;;8.45;78.34;101562.31;130405;1268;108874;-70
2022/10/07 06:58:37;;;;;;;17.60;12.10;;;;;;;8.62;78.58;101563.80;130356;1268;108639;-70
2022/10/07 07:01:43;;;;;;;15.10;11.00;;;;;;;8.78;78.70;101566.61;130306;1268;107173;-70
2022/10/07 07:04:48;;;;;;;16.80;10.20;;;;;;;8.91;78.90;101569.38;130347;1268;108779;-69
2022/10/07 07:07:56;;;;;;;15.20;9.20;;;;;;;9.04;79.02;101571.27;130417;1268;108691;-71
2022/10/07 07:11:34;;;;;;;11.80;8.60;;;;;;;9.21;79.06;101568.83;130469;1267;108720;-70
2022/10/07 07:14:33;;;;;;;13.10;8.80;;;;;;;9.39;79.19;101568.02;130354;1268;109804;-70
2022/10/07 07:17:45;;;;;;;12.20;9.20;;;;;;;9.57;79.04;101573.41;130315;1267;109542;-70
2022/10/07 07:20:51;;;;;;;12.00;8.00;;;;;;;9.72;79.03;101570.91;130436;1268;108657;-70
2022/10/07 07:23:57;;;;;;;13.40;9.00;;;;;;;9.84;79.13;101567.38;130322;1267;108761;-70
2022/10/07 07:27:03;;;;;;;12.20;7.80;;;;;;;9.93;79.23;101567.19;130035;1268;109075;-70
2022/10/07 07:30:12;;;;;;;12.10;7.60;;;;;;;10.03;79.13;101563.91;130335;1267;109600;-71
2022/10/07 07:33:17;;;;;;;12.30;7.70;;;;;;;10.16;79.03;101559.07;130227;1268;108681;-71
2022/10/07 07:36:25;;;;;;;12.40;8.70;;;;;;;10.30;79.11;101557.45;130187;1268;108425;-71
2022/10/07 07:39:30;;;;;;;12.30;8.80;;;;;;;10.46;79.24;101558.16;130355;1268;108049;-70
2022/10/07 07:42:42;;;;;;;11.40;8.10;;;;;;;10.59;79.22;101558.23;130199;1270;108640;-71
2022/10/07 07:45:47;;;;;;;11.70;8.30;;;;;;;10.70;79.03;101555.40;130222;1268;108779;-70
2022/10/07 07:48:53;;;;;;;12.80;8.00;;;;;;;10.80;78.74;101557.98;130308;1268;108675;-70
2022/10/07 07:51:59;;;;;;;10.50;6.70;;;;;;;10.90;79.03;101556.45;130400;1268;108959;-71
2022/10/07 07:55:09;;;;;;;15.70;9.70;;;;;;;11.02;78.73;101550.69;130250;1268;108605;-73
2022/10/07 07:58:16;;;;;;;12.30;8.20;;;;;;;11.16;78.80;101545.27;130256;1268;109198;-71
2022/10/07 08:01:22;;;;;;;15.70;9.90;;;;;;;11.29;78.92;101543.73;130360;1268;108724;-71
2022/10/07 08:04:28;;;;;;;11.70;8.20;;;;;;;11.41;78.99;101540.58;130281;1267;108764;-71
2022/10/07 08:07:35;;;;;;;11.10;7.60;;;;;;;11.52;79.14;101533.63;130379;1268;107676;-71
2022/10/07 08:10:41;;;;;;;10.50;7.50;;;;;;;11.61;78.82;101530.51;130269;1268;108467;-71
2022/10/07 08:13:48;;;;;;;9.70;7.30;;;;;;;11.71;78.55;101531.34;130475;1267;108734;-70
2022/10/07 08:16:56;;;;;;;10.90;6.10;;;;;;;11.82;78.53;101532.35;130294;1268;108962;-70
2022/10/07 08:20:03;;;;;;;9.10;5.80;;;;;;;11.94;78.57;101529.76;130357;1268;108767;-70
2022/10/07 08:23:08;;;;;;;7.00;5.40;;;;;;;12.09;78.22;101527.97;130337;1268;107612;-72
2022/10/07 08:26:15;;;;;;;7.00;5.30;;;;;;;12.23;78.09;101528.73;130192;1267;108710;-71
2022/10/07 08:29:20;;;;;;;9.60;6.20;;;;;;;12.35;78.06;101525.50;130191;1268;108620;-70
2022/10/07 08:32:26;;;;;;;8.50;5.80;;;;;;;12.46;77.90;101521.52;130418;1268;108777;-70
2022/10/07 08:35:31;;;;;;;9.00;5.70;;;;;;;12.54;77.38;101516.17;130231;1268;108667;-71
2022/10/07 08:38:39;;;;;;;9.10;5.70;;;;;;;12.62;77.40;101515.29;130446;1268;107287;-70
2022/10/07 08:41:54;;;;;;;10.10;5.50;;;;;;;12.71;77.24;101513.66;130391;1267;109538;-71
2022/10/07 08:45:01;;;;;;;8.00;5.00;;;;;;;12.75;77.05;101510.70;130331;1268;107709;-70
2022/10/07 08:48:10;;;;;;;6.80;4.50;;;;;;;12.83;77.14;101504.90;130401;1268;108634;-70
2022/10/07 08:51:20;;;;;;;8.40;5.00;;;;;;;12.95;77.11;101502.41;130400;1267;107662;-71
2022/10/07 08:54:30;;;;;;;6.70;4.20;;;;;;;13.08;77.07;101500.71;130478;1268;108939;-71
2022/10/07 08:57:47;;;;;;;11.10;5.80;;;;;;;13.20;76.88;101494.91;130306;1268;108935;-71
2022/10/07 09:00:59;;;;;;;19.10;11.60;;;;;;;13.33;76.83;101496.82;130241;1268;107181;-71
2022/10/07 09:04:18;;;;;;;41.10;26.20;;;;;;;13.43;76.77;101489.86;130314;1268;110527;-74
2022/10/07 09:07:34;;;;;;;12.40;8.90;;;;;;;13.51;76.65;101487.16;130402;1268;107646;-71
2022/10/07 09:10:47;;;;;;;9.10;5.40;;;;;;;13.58;76.69;101486.12;130266;1268;108786;-71
2022/10/07 09:13:58;;;;;;;8.80;4.50;;;;;;;13.64;76.29;101485.22;130403;1267;108652;-71
2022/10/07 09:17:11;;;;;;;4.90;3.60;;;;;;;13.71;76.05;101482.95;130194;1268;109551;-70
2022/10/07 09:20:19;;;;;;;8.90;5.10;;;;;;;13.76;75.85;101481.77;130345;1267;109139;-70
2022/10/07 09:23:29;;;;;;;5.40;3.00;;;;;;;13.82;75.43;101478.20;130296;1268;108719;-70
2022/10/07 09:26:34;;;;;;;5.00;2.80;;;;;;;13.91;75.30;101474.82;130312;1267;108897;-70
2022/10/07 09:29:39;;;;;;;6.10;3.20;;;;;;;14.00;75.26;101472.06;130301;1268;109017;-70
2022/10/07 09:32:47;;;;;;;5.50;3.60;;;;;;;14.08;74.83;101470.50;130364;1268;108744;-70
2022/10/07 09:35:56;;;;;;;3.60;2.50;;;;;;;14.16;74.58;101463.20;130262;1268;108613;-71
2022/10/07 09:39:22;;;;;;;3.40;2.40;;;;;;;14.23;74.21;101458.93;130373;1268;108767;-70
2022/10/07 09:42:34;;;;;;;3.70;1.80;;;;;;;14.28;73.72;101451.64;130468;1268;110311;-70
2022/10/07 09:45:46;;;;;;;3.00;2.00;;;;;;;14.32;73.49;101450.55;130361;1268;106846;-70
2022/10/07 09:48:55;;;;;;;3.60;2.00;;;;;;;14.34;73.50;101447.44;130372;1268;108964;-70
2022/10/07 09:52:02;;;;;;;4.20;2.20;;;;;;;14.39;73.32;101439.98;130212;1268;109483;-70
2022/10/07 09:55:36;;;;;;;3.90;2.20;;;;;;;14.44;73.22;101436.98;130432;1268;108846;-72
2022/10/07 09:58:41;;;;;;;3.30;2.30;;;;;;;14.50;73.26;101430.88;130403;1268;108692;-71
2022/10/07 10:01:52;;;;;;;3.70;2.00;;;;;;;14.52;72.96;101433.86;130278;1267;109671;-71
2022/10/07 10:04:58;;;;;;;2.70;1.90;;;;;;;14.57;72.96;101425.42;130407;1268;108741;-71
2022/10/07 10:08:07;;;;;;;3.90;2.20;;;;;;;14.61;72.69;101419.48;130307;1267;108969;-70
2022/10/07 10:11:28;;;;;;;3.10;1.80;;;;;;;14.65;72.77;101414.42;130409;1268;107609;-71
2022/10/07 10:14:49;;;;;;;4.60;1.90;;;;;;;14.70;72.22;101405.62;130139;1268;108712;-70
2022/10/07 10:17:56;;;;;;;2.90;1.90;;;;;;;14.73;71.81;101405.67;130380;1267;109064;-70
2022/10/07 10:28:37;;;;;;;2.60;1.50;;;;;;;14.90;71.40;101390.20;125683;1302;108124;-72
2022/10/07 10:31:56;;;;;;;4.40;1.70;;;;;;;14.95;70.69;101386.72;125645;1298;107449;-70
2022/10/07 10:35:08;;;;;;;2.70;1.40;;;;;;;14.98;70.90;101378.88;125625;1297;108057;-69
2022/10/07 10:38:29;;;;;;;2.70;1.80;;;;;;;15.02;70.93;101371.11;125491;1289;225404;-70
2022/10/07 10:41:43;;;;;;;2.90;1.40;;;;;;;15.07;70.70;101368.16;126062;1289;107997;-69
2022/10/07 10:45:01;;;;;;;3.30;1.70;;;;;;;15.09;70.41;101366.13;126055;1289;108001;-69
2022/10/07 10:48:27;;;;;;;3.20;1.60;;;;;;;15.11;70.35;101360.00;126086;1295;107069;-70
2022/10/07 10:51:48;;;;;;;2.20;1.50;;;;;;;15.15;70.14;101352.13;126021;1289;108324;-70
2022/10/07 10:55:11;;;;;;;3.80;1.80;;;;;;;15.19;69.65;101345.78;125834;1292;107391;-69
2022/10/07 10:58:28;;;;;;;4.10;1.70;;;;;;;15.25;69.72;101339.38;125916;1289;108192;-70
2022/10/07 11:01:38;;;;;;;3.30;2.20;;;;;;;15.33;69.69;101333.55;126041;1292;107376;-70
2022/10/07 11:04:50;;;;;;;4.20;2.00;;;;;;;15.37;69.80;101326.39;125937;1290;106351;-70
2022/10/07 11:08:00;;;;;;;2.60;2.10;;;;;;;15.39;69.72;101321.11;126008;1288;107970;-69
2022/10/07 11:11:10;;;;;;;9.10;3.40;;;;;;;15.43;69.51;101314.59;126266;1284;107663;-70
2022/10/07 11:14:21;;;;;;;4.20;1.90;;;;;;;15.47;69.24;101307.61;126197;1284;108063;-69
2022/10/07 11:17:30;;;;;;;20.00;14.80;;;;;;;15.49;68.59;101300.59;126134;1295;107389;-69
2022/10/07 11:20:41;;;;;;;5.20;3.70;;;;;;;15.51;68.66;101293.17;126197;1287;107973;-70
2022/10/07 11:23:54;;;;;;;4.70;2.30;;;;;;;15.55;68.42;101293.00;126100;1295;107962;-69
2022/10/07 11:27:06;;;;;;;2.70;2.00;;;;;;;15.58;68.40;101282.42;126092;1291;107979;-69
2022/10/07 11:30:19;;;;;;;3.20;1.80;;;;;;;15.63;68.44;101278.14;126055;1292;107217;-69
2022/10/07 11:33:33;;;;;;;3.10;1.80;;;;;;;15.65;68.10;101266.57;126158;1291;107342;-70
2022/10/07 11:36:48;;;;;;;2.40;1.50;;;;;;;15.69;68.15;101262.02;126203;1292;108003;-70
2022/10/07 11:39:54;;;;;;;2.90;1.60;;;;;;;15.75;67.97;101255.61;126123;1289;108144;-70
2022/10/07 11:43:07;;;;;;;2.70;1.70;;;;;;;15.78;67.74;101246.77;126189;1296;107295;-69
2022/10/07 11:46:19;;;;;;;2.10;1.50;;;;;;;15.82;67.68;101238.79;126295;1287;107513;-72
2022/10/07 11:49:30;;;;;;;4.80;1.70;;;;;;;15.85;67.76;101236.71;126052;1285;107325;-69
2022/10/07 11:52:40;;;;;;;2.30;1.40;;;;;;;15.89;67.38;101227.84;126180;1292;107453;-70
2022/10/07 11:55:51;;;;;;;3.40;1.80;;;;;;;15.90;67.16;101221.59;126121;1291;108765;-70
2022/10/07 11:59:03;;;;;;;2.10;1.80;;;;;;;15.92;67.01;101214.46;126156;1285;107532;-69
2022/10/07 12:02:51;;;;;;;4.40;1.60;;;;;;;15.91;66.93;101202.91;126136;1292;107553;-70
2022/10/07 12:06:06;;;;;;;2.80;1.70;;;;;;;15.95;67.11;101193.65;126042;1291;108174;-70
2022/10/07 12:09:39;;;;;;;5.60;1.80;;;;;;;15.99;66.96;101193.98;126134;1292;107894;-69
2022/10/07 12:12:50;;;;;;;;;;;;;;;16.02;67.07;101188.61;126020;1296;108025;-70
2022/10/07 12:16:16;;;;;;;2.70;1.60;;;;;;;16.04;66.86;101186.45;126119;1292;107315;-69
2022/10/07 12:19:21;;;;;;;3.00;1.70;;;;;;;16.06;66.56;101173.73;126108;1292;108216;-70
2022/10/07 12:22:26;;;;;;;2.20;1.50;;;;;;;16.08;66.76;101171.98;126079;1291;108144;-69
2022/10/07 12:25:41;;;;;;;3.30;1.60;;;;;;;16.10;66.58;101165.96;126035;1294;108140;-70
2022/10/07 12:28:47;;;;;;;2.00;1.50;;;;;;;16.13;66.27;101159.13;126080;1290;108227;-69
2022/10/07 12:31:53;;;;;;;3.70;1.80;;;;;;;16.14;66.53;101153.44;126148;1292;107454;-69
2022/10/07 12:35:44;;;;;;;3.10;2.00;;;;;;;16.16;66.50;101147.28;126147;1292;110287;-69
2022/10/07 12:39:34;;;;;;;4.60;2.50;;;;;;;16.21;66.70;101147.52;125682;1294;108091;-70
2022/10/07 12:42:46;;;;;;;2.60;1.80;;;;;;;16.27;66.33;101139.42;126202;1292;107310;-69
2022/10/07 12:45:52;;;;;;;3.20;1.80;;;;;;;16.31;66.36;101135.41;126222;1290;107554;-69
2022/10/07 12:49:01;;;;;;;3.30;1.90;;;;;;;16.33;66.18;101131.58;126140;1287;107436;-72
2022/10/07 12:52:11;;;;;;;2.10;1.70;;;;;;;16.36;66.16;101127.11;126157;1295;107534;-72
2022/10/07 12:55:20;;;;;;;3.00;2.00;;;;;;;16.37;66.11;101121.05;126099;1285;107539;-70
2022/10/07 13:02:34;;;;;;;1.80;1.60;;;;;;;16.37;66.10;101110.77;126202;1291;107517;-70
2022/10/07 13:06:19;;;;;;;3.40;2.00;;;;;;;16.37;65.95;101101.91;126092;1286;110350;-71
2022/10/07 13:09:57;;;;;;;2.80;2.30;;;;;;;16.39;66.05;101095.84;126160;1289;107293;-70
2022/10/07 13:13:07;;;;;;;4.20;2.10;;;;;;;16.43;66.06;101093.85;126232;1296;108237;-71
2022/10/07 13:16:20;;;;;;;2.40;2.00;;;;;;;16.44;65.94;101088.15;126105;1299;107615;-70
2022/10/07 13:19:33;;;;;;;2.80;2.10;;;;;;;16.44;65.73;101088.48;126121;1285;106637;-70
2022/10/07 13:22:44;;;;;;;3.90;2.30;;;;;;;16.45;65.54;101081.38;126191;1296;107489;-70
2022/10/07 13:25:53;;;;;;;3.30;2.20;;;;;;;16.44;65.56;101073.38;126112;1286;106283;-70
2022/10/07 13:29:00;;;;;;;3.20;2.20;;;;;;;16.44;65.43;101067.11;126291;1288;107296;-70
2022/10/07 13:32:13;;;;;;;2.40;2.00;;;;;;;16.44;65.32;101063.34;126305;1289;107447;-70
2022/10/07 13:35:31;;;;;;;2.70;2.00;;;;;;;16.43;65.37;101056.95;126253;1285;107800;-70
2022/10/07 13:38:36;;;;;;;3.50;2.20;;;;;;;16.43;65.05;101049.09;126375;1287;108095;-70
2022/10/07 13:41:45;;;;;;;3.80;2.40;;;;;;;16.43;65.08;101046.10;126349;1290;108223;-70
2022/10/07 13:44:50;;;;;;;3.00;2.00;;;;;;;16.42;65.00;101037.71;126093;1287;108024;-69
2022/10/07 13:47:56;;;;;;;3.40;2.60;;;;;;;16.42;65.13;101031.30;126129;1288;108239;-69
2022/10/07 13:51:03;;;;;;;3.00;2.20;;;;;;;16.40;64.74;101028.94;126246;1287;105982;-69
2022/10/07 13:54:18;;;;;;;3.80;2.00;;;;;;;16.38;64.66;101025.96;126120;1284;107534;-69
2022/10/07 13:57:25;;;;;;;3.60;2.00;;;;;;;16.37;64.78;101022.69;126199;1294;105620;-69
2022/10/07 14:00:32;;;;;;;2.90;2.00;;;;;;;16.35;64.88;101014.44;126237;1286;107623;-69
2022/10/07 14:04:01;;;;;;;3.60;1.90;;;;;;;16.33;64.87;101008.89;126240;1285;107580;-69
2022/10/07 14:07:18;;;;;;;3.50;2.00;;;;;;;16.30;64.84;101004.91;126180;1289;108880;-70
2022/10/07 14:10:27;;;;;;;2.40;2.00;;;;;;;16.28;64.74;100998.90;126152;1294;107489;-70
2022/10/07 14:13:36;;;;;;;4.40;2.50;;;;;;;16.27;64.67;100991.80;126150;1284;107517;-70
2022/10/07 14:16:42;;;;;;;4.60;2.80;;;;;;;16.25;64.76;100990.93;126093;1285;108193;-69
2022/10/07 14:19:53;;;;;;;5.60;3.10;;;;;;;16.24;64.87;100985.83;126150;1289;108142;-70
2022/10/07 14:23:01;;;;;;;5.30;2.90;;;;;;;16.23;64.84;100978.31;126151;1289;108212;-69
2022/10/07 14:26:09;;;;;;;4.10;2.70;;;;;;;16.21;64.84;100970.91;126130;1287;107448;-69
2022/10/07 14:29:36;;;;;;;4.60;2.80;;;;;;;16.19;64.95;100966.17;126412;1276;106250;-69
2022/10/07 14:36:17;;;;;;;3.80;2.70;;;;;;;16.11;65.02;100958.95;126458;1282;107094;-69
2022/10/07 14:39:34;;;;;;;21.30;14.40;;;;;;;16.08;65.11;100956.04;126575;1291;107357;-69
2022/10/07 14:42:39;;;;;;;8.50;5.20;;;;;;;16.05;65.12;100948.61;126509;1283;108002;-69
2022/10/07 14:45:45;;;;;;;7.00;5.40;;;;;;;16.03;65.18;100937.82;126720;1289;108230;-68